createdAt,value
2017-11-19T00:02:19.947Z,16.87
2017-11-19T00:04:50.460Z,17.80
2017-11-19T00:07:20.997Z,17.57
2017-11-19T00:09:51.464Z,18.80
2017-11-19T00:12:22.829Z,17.63
2017-11-19T00:14:53.274Z,16.97
2017-11-19T00:17:24.177Z,18.00
2017-11-19T00:19:55.454Z,16.47
2017-11-19T00:22:25.990Z,17.57
2017-11-19T00:24:56.415Z,17.03
2017-11-19T00:27:26.943Z,16.97
2017-11-19T00:29:57.695Z,17.00
2017-11-19T00:32:28.260Z,17.57
2017-11-19T00:34:59.054Z,15.70
2017-11-19T00:37:29.637Z,15.80
2017-11-19T00:40:00.938Z,15.63
2017-11-19T00:42:31.767Z,14.93
2017-11-19T00:45:02.268Z,16.73
2017-11-19T00:47:33.297Z,16.43
2017-11-19T00:50:04.526Z,16.57
2017-11-19T00:52:35.871Z,16.90
2017-11-19T00:55:06.370Z,16.20
2017-11-19T00:57:36.880Z,15.83
2017-11-19T01:00:07.882Z,17.17
2017-11-19T01:02:39.213Z,19.50
2017-11-19T01:05:20.443Z,18.00
2017-11-19T01:07:50.965Z,16.87
2017-11-19T01:10:21.503Z,16.80
2017-11-19T01:12:51.995Z,15.30
2017-11-19T01:15:23.274Z,16.30
2017-11-19T01:17:54.107Z,15.60
2017-11-19T01:20:24.612Z,14.73
2017-11-19T01:22:55.886Z,13.80
2017-11-19T01:25:26.405Z,15.07
2017-11-19T01:27:56.927Z,15.10
2017-11-19T01:30:27.687Z,14.07
2017-11-19T01:32:58.236Z,15.33
2017-11-19T01:35:29.014Z,14.77
2017-11-19T01:38:00.262Z,14.30
2017-11-19T01:40:31.480Z,13.33
2017-11-19T01:43:02.000Z,12.70
2017-11-19T01:45:32.524Z,12.43
2017-11-19T01:48:03.419Z,13.20
2017-11-19T01:50:33.974Z,12.03
2017-11-19T01:53:04.528Z,12.17
2017-11-19T01:55:35.040Z,12.80
2017-11-19T01:58:06.255Z,12.23
2017-11-19T02:00:37.473Z,12.27
2017-11-19T02:03:08.793Z,13.50
2017-11-19T02:05:39.604Z,14.20
2017-11-19T02:08:10.110Z,13.07
2017-11-19T02:10:40.614Z,14.47
2017-11-19T02:13:11.944Z,13.00
2017-11-19T02:15:42.399Z,12.87
2017-11-19T02:18:14.004Z,12.13
2017-11-19T02:20:44.443Z,11.80
2017-11-19T02:23:14.974Z,12.30
2017-11-19T02:25:45.448Z,12.20
2017-11-19T02:28:15.986Z,13.40
2017-11-19T02:30:46.869Z,13.00
2017-11-19T02:33:18.139Z,13.60
2017-11-19T02:35:49.853Z,13.83
2017-11-19T02:38:20.368Z,12.90
2017-11-19T02:40:50.848Z,13.00
2017-11-19T02:43:22.168Z,14.40
2017-11-19T02:45:52.694Z,13.03
2017-11-19T02:48:23.665Z,11.27
2017-11-19T02:50:55.096Z,9.40
2017-11-19T02:53:25.593Z,10.50
2017-11-19T02:55:56.036Z,9.70
2017-11-19T02:58:26.576Z,10.70
2017-11-19T03:00:57.411Z,9.70
2017-11-19T03:03:27.966Z,10.47
2017-11-19T03:05:59.579Z,12.47
2017-11-19T03:08:30.182Z,11.30
2017-11-19T03:11:00.669Z,10.27
2017-11-19T03:13:31.974Z,10.00
2017-11-19T03:16:02.450Z,10.23
2017-11-19T03:18:34.188Z,10.27
2017-11-19T03:21:04.960Z,13.10
2017-11-19T03:23:35.506Z,13.80
2017-11-19T03:26:06.057Z,14.47
2017-11-19T03:28:36.556Z,6.47
2017-11-19T03:31:07.960Z,5.23
2017-11-19T03:33:38.460Z,3.70
2017-11-19T03:36:09.342Z,3.63
2017-11-19T03:38:40.635Z,4.50
2017-11-19T03:41:11.131Z,3.30
2017-11-19T03:43:42.496Z,3.40
2017-11-19T03:46:13.065Z,4.50
2017-11-19T03:48:44.137Z,3.93
2017-11-19T03:51:15.388Z,3.87
2017-11-19T03:53:46.661Z,3.97
2017-11-19T03:56:17.157Z,4.03
2017-11-19T03:58:48.459Z,3.87
2017-11-19T04:01:19.550Z,3.47
2017-11-19T04:03:50.783Z,8.33
2017-11-19T04:06:21.697Z,5.40
2017-11-19T04:08:52.196Z,4.30
2017-11-19T04:11:22.711Z,4.13
2017-11-19T04:13:53.322Z,3.60
2017-11-19T04:16:23.771Z,3.60
2017-11-19T04:18:54.369Z,3.70
2017-11-19T04:21:25.674Z,3.63
2017-11-19T04:23:56.776Z,3.80
2017-11-19T04:26:28.055Z,4.10
2017-11-19T04:28:58.615Z,3.93
2017-11-19T04:31:29.135Z,3.50
2017-11-19T04:33:59.650Z,4.13
2017-11-19T04:36:31.030Z,4.00
2017-11-19T04:39:01.551Z,3.23
2017-11-19T04:41:32.058Z,3.07
2017-11-19T04:44:02.607Z,3.30
2017-11-19T04:46:33.097Z,3.73
2017-11-19T04:49:04.008Z,3.43
2017-11-19T04:51:35.232Z,2.70
2017-11-19T04:54:06.160Z,3.30
2017-11-19T04:56:36.604Z,3.27
2017-11-19T04:59:07.183Z,3.20
2017-11-19T05:01:37.779Z,3.03
2017-11-19T05:04:09.060Z,3.33
2017-11-19T05:06:39.974Z,2.87
2017-11-19T05:09:11.210Z,3.30
2017-11-19T05:11:42.464Z,3.10
2017-11-19T05:14:13.774Z,3.17
2017-11-19T05:16:44.331Z,2.70
2017-11-19T05:19:16.945Z,2.50
2017-11-19T05:21:47.434Z,4.03
2017-11-19T05:24:18.480Z,2.50
2017-11-19T05:26:49.791Z,2.90
2017-11-19T05:29:20.307Z,2.87
2017-11-19T05:31:50.840Z,2.47
2017-11-19T05:34:21.438Z,2.77
2017-11-19T05:36:52.076Z,3.37
2017-11-19T05:39:22.602Z,3.03
2017-11-19T05:41:53.155Z,2.83
2017-11-19T05:44:23.648Z,2.90
2017-11-19T05:46:54.253Z,2.73
2017-11-19T05:49:25.520Z,3.33
2017-11-19T05:51:56.088Z,2.57
2017-11-19T05:54:26.974Z,3.50
2017-11-19T05:56:58.233Z,2.70
2017-11-19T05:59:29.471Z,2.60
2017-11-19T06:02:00.740Z,2.80
2017-11-19T06:04:31.991Z,3.80
2017-11-19T06:07:02.655Z,2.87
2017-11-19T06:09:33.124Z,2.90
2017-11-19T06:12:04.414Z,2.50
2017-11-19T06:18:17.996Z,2.60
2017-11-19T06:20:50.145Z,2.93
2017-11-19T06:23:20.618Z,3.00
2017-11-19T06:25:51.065Z,2.60
2017-11-19T06:28:21.547Z,3.07
2017-11-19T06:30:52.740Z,3.10
2017-11-19T06:33:25.143Z,3.10
2017-11-19T06:35:55.575Z,3.03
2017-11-19T06:38:26.518Z,3.13
2017-11-19T06:40:57.758Z,2.50
2017-11-19T06:43:28.218Z,2.80
2017-11-19T06:46:00.076Z,3.30
2017-11-19T06:48:31.317Z,3.07
2017-11-19T06:51:03.492Z,3.30
2017-11-19T06:53:34.707Z,2.67
2017-11-19T06:56:05.168Z,3.23
2017-11-19T06:58:35.644Z,3.20
2017-11-19T07:01:06.072Z,3.07
2017-11-19T07:03:37.054Z,3.07
2017-11-19T07:06:08.261Z,3.00
2017-11-19T07:08:38.701Z,2.90
2017-11-19T07:11:09.182Z,2.73
2017-11-19T07:13:39.655Z,3.67
2017-11-19T07:16:10.627Z,2.73
2017-11-19T07:18:41.860Z,3.43
2017-11-19T07:21:13.491Z,2.90
2017-11-19T07:23:43.954Z,3.50
2017-11-19T07:26:15.152Z,2.90
2017-11-19T07:28:45.884Z,2.93
2017-11-19T07:31:16.568Z,3.03
2017-11-19T07:34:27.157Z,3.50
2017-11-19T07:37:12.262Z,4.23
2017-11-19T07:39:42.741Z,4.90
2017-11-19T07:42:13.210Z,5.20
2017-11-19T07:44:43.670Z,5.17
2017-11-19T07:47:14.499Z,4.90
2017-11-19T07:49:44.970Z,6.80
2017-11-19T07:52:16.196Z,6.83
2017-11-19T07:54:46.699Z,7.53
2017-11-19T07:57:17.248Z,7.10
2017-11-19T07:59:47.963Z,6.40
2017-11-19T08:02:18.449Z,4.93
2017-11-19T08:04:50.034Z,4.07
2017-11-19T08:07:20.499Z,3.80
2017-11-19T08:09:50.970Z,3.27
2017-11-19T08:12:21.471Z,3.20
2017-11-19T08:14:52.711Z,3.57
2017-11-19T08:17:24.333Z,3.70
2017-11-19T08:19:54.805Z,2.87
2017-11-19T08:22:26.042Z,3.43
2017-11-19T08:24:57.262Z,3.33
2017-11-19T08:27:27.677Z,3.03
2017-11-19T08:29:59.664Z,3.80
2017-11-19T08:32:30.103Z,3.00
2017-11-19T08:35:02.537Z,3.20
2017-11-19T08:37:32.967Z,2.70
2017-11-19T08:40:03.438Z,2.97
2017-11-19T08:42:34.632Z,3.00
2017-11-19T08:45:05.107Z,3.27
2017-11-19T08:47:36.598Z,2.87
2017-11-19T08:50:08.090Z,3.23
2017-11-19T08:52:38.589Z,2.70
2017-11-19T08:55:09.037Z,3.03
2017-11-19T08:57:39.551Z,2.50
2017-11-19T09:00:11.097Z,2.73
2017-11-19T09:02:41.593Z,2.80
2017-11-19T09:05:12.510Z,2.80
2017-11-19T09:07:48.674Z,2.50
2017-11-19T09:10:19.877Z,2.93
2017-11-19T09:12:50.347Z,2.67
2017-11-19T09:15:21.677Z,3.00
2017-11-19T09:17:52.368Z,3.20
2017-11-19T09:20:22.827Z,2.37
2017-11-19T09:22:53.283Z,2.27
2017-11-19T09:25:23.761Z,2.93
2017-11-19T09:27:54.262Z,2.70
2017-11-19T09:30:25.169Z,3.33
2017-11-19T09:32:56.360Z,3.07
2017-11-19T09:35:27.211Z,3.27
2017-11-19T09:37:57.922Z,2.87
2017-11-19T09:40:28.388Z,2.93
2017-11-19T09:42:58.874Z,3.13
2017-11-19T09:45:29.399Z,3.23
2017-11-19T09:47:59.966Z,2.67
2017-11-19T09:50:30.424Z,2.77
2017-11-19T09:53:01.675Z,3.00
2017-11-19T09:55:32.897Z,2.60
2017-11-19T09:58:03.485Z,2.70
2017-11-19T10:00:33.975Z,2.67
2017-11-19T10:03:05.231Z,2.53
2017-11-19T10:05:36.798Z,2.70
2017-11-19T10:08:07.262Z,2.97
2017-11-19T10:10:37.731Z,3.00
2017-11-19T10:13:08.929Z,3.10
2017-11-19T10:15:39.394Z,2.70
2017-11-19T10:18:10.206Z,2.63
2017-11-19T10:20:40.670Z,3.03
2017-11-19T10:23:12.385Z,2.90
2017-11-19T10:25:42.842Z,3.10
2017-11-19T10:28:14.554Z,2.60
2017-11-19T10:30:45.160Z,2.90
2017-11-19T10:33:15.627Z,2.90
2017-11-19T10:35:46.569Z,3.43
2017-11-19T10:38:17.029Z,2.93
2017-11-19T10:40:48.228Z,3.40
2017-11-19T10:43:18.710Z,3.00
2017-11-19T10:45:49.925Z,3.00
2017-11-19T10:48:20.734Z,3.73
2017-11-19T10:50:51.187Z,3.23
2017-11-19T10:53:22.014Z,2.33
2017-11-19T10:55:52.567Z,2.70
2017-11-19T10:58:23.856Z,2.20
2017-11-19T11:00:54.311Z,2.60
2017-11-19T11:03:24.780Z,2.87
2017-11-19T11:05:56.398Z,1.93
2017-11-19T11:08:26.844Z,1.80
2017-11-19T11:10:57.303Z,2.20
2017-11-19T11:13:27.744Z,2.63
2017-11-19T11:15:58.184Z,2.40
2017-11-19T11:18:29.183Z,2.77
2017-11-19T11:21:00.421Z,2.90
2017-11-19T11:23:31.334Z,2.40
2017-11-19T11:26:01.797Z,3.07
2017-11-19T11:28:33.008Z,3.00
2017-11-19T11:31:03.462Z,3.23
2017-11-19T11:33:34.705Z,3.07
2017-11-19T11:36:06.345Z,2.97
2017-11-19T11:38:36.784Z,3.23
2017-11-19T11:41:07.279Z,3.70
2017-11-19T11:43:37.744Z,3.27
2017-11-19T11:46:08.997Z,3.27
2017-11-19T11:48:39.760Z,3.87
2017-11-19T11:51:10.978Z,3.50
2017-11-19T11:53:42.310Z,3.50
2017-11-19T11:56:12.786Z,4.10
2017-11-19T11:58:43.273Z,4.00
2017-11-19T12:01:14.523Z,4.53
2017-11-19T12:03:45.769Z,4.57
2017-11-19T12:06:17.295Z,5.37
2017-11-19T12:08:47.745Z,4.70
2017-11-19T12:11:19.193Z,5.07
2017-11-19T12:13:50.359Z,4.13
2017-11-19T12:16:20.803Z,4.50
2017-11-19T12:18:51.288Z,4.70
2017-11-19T12:21:21.851Z,4.60
2017-11-19T12:23:52.609Z,4.43
2017-11-19T12:26:23.120Z,4.53
2017-11-19T12:28:53.568Z,3.93
2017-11-19T12:31:24.043Z,4.63
2017-11-19T12:33:54.665Z,4.77
2017-11-19T12:36:27.099Z,4.43
2017-11-19T12:38:57.537Z,4.27
2017-11-19T12:41:28.070Z,4.67
2017-11-19T12:43:58.516Z,5.00
2017-11-19T12:46:29.000Z,5.33
2017-11-19T12:48:59.451Z,4.20
2017-11-19T12:51:29.931Z,3.93
2017-11-19T12:54:00.660Z,3.40
2017-11-19T12:56:31.896Z,4.13
2017-11-19T12:59:03.102Z,3.67
2017-11-19T13:01:33.571Z,3.70
2017-11-19T13:04:04.809Z,3.53
2017-11-19T13:06:37.507Z,3.53
2017-11-19T13:09:08.107Z,3.67
2017-11-19T13:11:39.032Z,4.07
2017-11-19T13:14:09.460Z,3.90
2017-11-19T13:16:39.906Z,4.60
2017-11-19T13:19:11.158Z,4.00
2017-11-19T13:21:42.446Z,4.63
2017-11-19T13:24:14.179Z,3.97
2017-11-19T13:26:44.630Z,3.97
2017-11-19T13:29:15.103Z,3.97
2017-11-19T13:31:45.565Z,4.87
2017-11-19T13:34:16.022Z,4.40
2017-11-19T13:36:46.997Z,4.17
2017-11-19T13:39:17.464Z,3.83
2017-11-19T13:41:48.156Z,5.10
2017-11-19T13:44:18.592Z,4.23
2017-11-19T13:46:49.044Z,4.13
2017-11-19T13:49:19.642Z,4.53
2017-11-19T13:51:50.088Z,4.27
2017-11-19T13:54:21.706Z,4.03
2017-11-19T13:56:52.182Z,4.23
2017-11-19T13:59:22.642Z,4.30
2017-11-19T14:01:53.080Z,4.20
2017-11-19T14:04:23.524Z,4.53
2017-11-19T14:06:54.390Z,5.27
2017-11-19T14:09:26.079Z,4.30
2017-11-19T14:11:57.064Z,4.20
2017-11-19T14:14:27.500Z,4.20
2017-11-19T14:16:57.963Z,4.20
2017-11-19T14:19:28.401Z,5.00
2017-11-19T14:21:58.851Z,4.43
2017-11-19T14:24:29.479Z,4.30
2017-11-19T14:26:59.960Z,3.87
2017-11-19T14:29:30.552Z,4.33
2017-11-19T14:32:00.996Z,4.10
2017-11-19T14:34:31.424Z,3.97
2017-11-19T14:37:01.903Z,3.90
2017-11-19T14:39:32.332Z,4.57
2017-11-19T14:42:03.210Z,4.60
2017-11-19T14:44:33.701Z,4.70
2017-11-19T14:47:04.176Z,4.93
2017-11-19T14:49:35.399Z,4.43
2017-11-19T14:52:05.836Z,5.20
2017-11-19T14:54:36.463Z,5.50
2017-11-19T14:57:06.916Z,5.50
2017-11-19T14:59:37.703Z,6.47
2017-11-19T15:02:08.170Z,5.70
2017-11-19T15:04:39.368Z,6.47
2017-11-19T15:07:09.829Z,6.67
2017-11-19T15:09:40.255Z,6.20
2017-11-19T15:12:10.971Z,7.30
2017-11-19T15:14:41.493Z,6.87
2017-11-19T15:17:11.936Z,6.90
2017-11-19T15:19:43.276Z,7.47
2017-11-19T15:22:13.756Z,7.23
2017-11-19T15:24:44.567Z,7.03
2017-11-19T15:27:15.760Z,7.90
2017-11-19T15:29:47.525Z,6.93
2017-11-19T15:32:18.031Z,6.70
2017-11-19T15:34:48.483Z,7.53
2017-11-19T15:37:19.710Z,7.80
2017-11-19T15:39:50.178Z,7.40
2017-11-19T15:42:21.000Z,7.30
2017-11-19T15:44:51.463Z,7.80
2017-11-19T15:47:22.763Z,7.47
2017-11-19T15:49:53.223Z,7.10
2017-11-19T15:52:23.672Z,6.50
2017-11-19T15:54:54.876Z,6.90
2017-11-19T15:57:25.357Z,7.17
2017-11-19T15:59:56.260Z,8.07
2017-11-19T16:02:26.866Z,8.43
2017-11-19T16:04:57.308Z,7.40
2017-11-19T16:07:27.736Z,7.13
2017-11-19T16:09:58.188Z,6.70
2017-11-19T16:12:29.846Z,6.27
2017-11-19T16:15:01.040Z,5.80
2017-11-19T16:17:31.698Z,5.23
2017-11-19T16:20:02.158Z,5.70
2017-11-19T16:22:33.363Z,6.10
2017-11-19T16:25:03.794Z,6.30
2017-11-19T16:27:34.229Z,6.40
2017-11-19T16:30:05.080Z,6.27
2017-11-19T16:32:36.294Z,5.50
2017-11-19T16:35:06.755Z,5.17
2017-11-19T16:37:38.076Z,5.40
2017-11-19T16:40:08.527Z,6.53
2017-11-19T16:42:40.190Z,7.50
2017-11-19T16:45:11.410Z,9.17
2017-11-19T16:47:43.229Z,9.83
2017-11-19T16:50:13.664Z,12.50
2017-11-19T16:52:44.109Z,10.43
2017-11-19T16:55:15.332Z,10.67
2017-11-19T16:57:45.828Z,11.53
2017-11-19T17:00:16.640Z,10.90
2017-11-19T17:02:47.104Z,11.27
2017-11-19T17:05:17.579Z,11.90
2017-11-19T17:07:48.035Z,12.40
2017-11-19T17:10:19.287Z,11.57
2017-11-19T17:12:50.219Z,12.33
2017-11-19T17:15:21.443Z,11.10
2017-11-19T17:17:52.486Z,11.17
2017-11-19T17:20:23.695Z,11.60
2017-11-19T17:22:54.272Z,10.83
2017-11-19T17:25:25.574Z,11.20
2017-11-19T17:27:56.064Z,10.80
2017-11-19T17:30:27.692Z,11.07
2017-11-19T17:32:58.151Z,10.70
2017-11-19T17:35:28.872Z,11.07
2017-11-19T17:38:00.122Z,10.33
2017-11-19T17:40:31.331Z,10.10
2017-11-19T17:43:02.173Z,12.20
2017-11-19T17:45:32.642Z,10.97
2017-11-19T17:48:03.365Z,11.13
2017-11-19T17:50:34.565Z,10.47
2017-11-19T17:53:05.032Z,10.67
2017-11-19T17:55:36.287Z,10.30
2017-11-19T17:58:06.746Z,11.23
2017-11-19T18:00:37.406Z,11.00
2017-11-19T18:03:07.872Z,11.50
2017-11-19T18:05:39.085Z,10.87
2017-11-19T18:08:09.535Z,10.70
2017-11-19T18:10:40.762Z,10.20
2017-11-19T18:13:11.217Z,10.90
2017-11-19T18:15:41.671Z,10.83
2017-11-19T18:18:12.554Z,11.60
2017-11-19T18:20:43.003Z,10.67
2017-11-19T18:23:14.271Z,9.90
2017-11-19T18:25:44.708Z,10.77
2017-11-19T18:28:15.177Z,9.83
2017-11-19T18:30:46.106Z,10.07
2017-11-19T18:33:16.581Z,10.07
2017-11-19T18:35:47.296Z,8.80
2017-11-19T18:38:18.550Z,8.70
2017-11-19T18:40:49.800Z,8.50
2017-11-19T18:43:21.120Z,8.20
2017-11-19T18:45:51.586Z,9.03
2017-11-19T18:48:22.529Z,9.47
2017-11-19T18:50:52.981Z,8.57
2017-11-19T18:53:23.461Z,8.17
2017-11-19T18:55:55.675Z,8.23
2017-11-19T18:58:26.154Z,8.30
2017-11-19T19:00:57.340Z,8.20
2017-11-19T19:03:27.793Z,6.20
2017-11-19T19:05:58.631Z,7.27
2017-11-19T19:08:29.100Z,7.80
2017-11-19T19:11:00.321Z,6.70
2017-11-19T19:13:30.760Z,5.10
2017-11-19T19:16:01.975Z,4.20
2017-11-19T19:18:32.768Z,4.80
2017-11-19T19:21:03.249Z,4.50
2017-11-19T19:23:33.706Z,4.97
2017-11-19T19:26:04.904Z,5.40
2017-11-19T19:28:35.353Z,5.17
2017-11-19T19:31:06.187Z,5.27
2017-11-19T19:33:36.635Z,5.27
2017-11-19T19:36:07.423Z,4.90
2017-11-19T19:38:37.888Z,5.10
2017-11-19T19:41:09.178Z,5.47
2017-11-19T19:43:39.707Z,5.90
2017-11-19T19:46:10.159Z,5.87
2017-11-19T19:48:41.248Z,5.43
2017-11-19T19:51:12.451Z,5.80
2017-11-19T19:53:42.910Z,5.30
2017-11-19T19:56:14.132Z,5.23
2017-11-19T19:58:44.618Z,6.07
2017-11-19T20:01:15.060Z,5.43
2017-11-19T20:03:45.539Z,6.03
2017-11-19T20:06:17.245Z,5.67
2017-11-19T20:08:47.732Z,6.80
2017-11-19T20:11:18.947Z,6.47
2017-11-19T20:13:49.414Z,6.10
2017-11-19T20:16:19.890Z,7.33
2017-11-19T20:18:50.720Z,6.77
2017-11-19T20:21:21.148Z,7.17
2017-11-19T20:23:52.016Z,6.43
2017-11-19T20:26:22.477Z,5.37
2017-11-19T20:28:52.928Z,6.93
2017-11-19T20:31:23.375Z,7.30
2017-11-19T20:33:53.840Z,6.40
2017-11-19T20:36:25.366Z,7.57
2017-11-19T20:38:55.861Z,7.67
2017-11-19T20:41:26.303Z,7.43
2017-11-19T20:43:56.745Z,7.30
2017-11-19T20:46:27.203Z,7.77
2017-11-19T20:48:58.840Z,7.73
2017-11-19T20:51:29.294Z,7.90
2017-11-19T20:54:00.111Z,8.70
2017-11-19T20:56:31.331Z,8.27
2017-11-19T20:59:01.791Z,12.73
2017-11-19T21:01:33.031Z,9.23
2017-11-19T21:04:04.278Z,8.33
2017-11-19T21:06:36.057Z,9.00
2017-11-19T21:09:06.790Z,8.90
2017-11-19T21:11:37.220Z,9.00
2017-11-19T21:14:07.701Z,9.60
2017-11-19T21:16:38.167Z,9.00
2017-11-19T21:19:08.974Z,9.30
2017-11-19T21:21:39.416Z,9.03
2017-11-19T21:24:10.940Z,8.70
2017-11-19T21:26:41.384Z,8.47
2017-11-19T21:29:16.919Z,8.30
2017-11-19T21:31:47.361Z,7.73
2017-11-19T21:34:18.550Z,8.07
2017-11-19T21:36:49.303Z,7.30
2017-11-19T21:39:19.760Z,8.77
2017-11-19T21:41:50.994Z,9.07
2017-11-19T21:44:21.462Z,7.90
2017-11-19T21:46:51.938Z,8.30
2017-11-19T21:49:22.877Z,10.10
2017-11-19T21:51:53.316Z,9.20
2017-11-19T21:54:24.235Z,8.10
2017-11-19T21:56:54.680Z,9.27
2017-11-19T21:59:25.138Z,8.50
2017-11-19T22:01:56.352Z,8.30
2017-11-19T22:04:26.800Z,6.40
2017-11-19T22:06:58.385Z,6.00
2017-11-19T22:09:28.906Z,5.70
2017-11-19T22:11:59.367Z,4.37
2017-11-19T22:14:29.837Z,4.33
2017-11-19T22:17:01.048Z,4.70
2017-11-19T22:19:31.499Z,4.10
2017-11-19T22:22:01.940Z,3.70
2017-11-19T22:24:33.569Z,3.83
2017-11-19T22:27:03.979Z,3.60
2017-11-19T22:29:34.435Z,4.07
2017-11-19T22:32:04.884Z,3.80
2017-11-19T22:34:36.077Z,3.67
2017-11-19T22:37:06.903Z,4.50
2017-11-19T22:39:37.384Z,3.97
2017-11-19T22:42:08.729Z,3.90
2017-11-19T22:44:39.959Z,3.67
2017-11-19T22:47:10.407Z,3.80
2017-11-19T22:49:41.630Z,4.30
2017-11-19T22:52:12.059Z,3.83
2017-11-19T22:54:42.913Z,4.00
2017-11-19T22:57:14.116Z,3.57
2017-11-19T22:59:44.581Z,3.60
2017-11-19T23:02:15.797Z,3.87
2017-11-19T23:04:46.262Z,4.97
2017-11-19T23:07:17.991Z,4.77
2017-11-19T23:09:48.437Z,4.80
2017-11-19T23:12:20.087Z,4.90
2017-11-19T23:14:50.591Z,3.93
2017-11-19T23:17:21.062Z,5.03
2017-11-19T23:19:52.328Z,5.80
2017-11-19T23:22:22.858Z,5.27
2017-11-19T23:24:53.639Z,5.10
2017-11-19T23:27:24.936Z,4.90
2017-11-19T23:29:55.427Z,4.40
2017-11-19T23:32:25.846Z,5.40
2017-11-19T23:34:56.321Z,4.90
2017-11-19T23:37:26.758Z,5.17
2017-11-19T23:39:58.025Z,4.20
2017-11-19T23:42:28.502Z,5.10
2017-11-19T23:44:59.707Z,4.57
2017-11-19T23:47:30.151Z,4.90
2017-11-19T23:50:00.630Z,5.73
2017-11-19T23:52:31.079Z,5.63
2017-11-19T23:55:02.034Z,5.43
2017-11-19T23:57:32.480Z,5.97
